createdAt,value
2017-12-13T00:02:14.475Z,66.17
2017-12-13T00:04:42.438Z,65.90
2017-12-13T00:07:09.995Z,66.05
2017-12-13T00:09:37.568Z,66.99
2017-12-13T00:12:05.382Z,66.17
2017-12-13T00:14:32.918Z,67.70
2017-12-13T00:17:00.503Z,65.73
2017-12-13T00:19:28.029Z,65.83
2017-12-13T00:21:55.675Z,67.47
2017-12-13T00:24:23.465Z,66.41
2017-12-13T00:26:51.016Z,66.17
2017-12-13T00:29:18.789Z,66.33
2017-12-13T00:31:46.363Z,66.96
2017-12-13T00:34:13.907Z,64.04
2017-12-13T00:36:41.474Z,65.84
2017-12-13T00:39:09.031Z,65.88
2017-12-13T00:41:36.624Z,64.82
2017-12-13T00:44:04.164Z,63.90
2017-12-13T00:46:31.736Z,64.17
2017-12-13T00:48:59.256Z,64.42
2017-12-13T00:51:26.811Z,64.87
2017-12-13T00:53:54.365Z,64.41
2017-12-13T00:56:21.934Z,64.77
2017-12-13T00:58:49.496Z,65.73
2017-12-13T01:01:17.059Z,65.68
2017-12-13T01:03:44.650Z,65.04
2017-12-13T01:06:12.296Z,66.70
2017-12-13T01:08:39.855Z,66.71
2017-12-13T01:11:07.404Z,69.23
2017-12-13T01:13:34.919Z,69.21
2017-12-13T01:16:02.470Z,70.18
2017-12-13T01:18:30.283Z,68.62
2017-12-13T01:20:57.824Z,69.65
2017-12-13T01:23:25.666Z,71.03
2017-12-13T01:25:53.185Z,69.16
2017-12-13T01:28:20.736Z,69.77
2017-12-13T01:30:48.325Z,70.36
2017-12-13T01:33:15.876Z,69.00
2017-12-13T01:35:55.612Z,70.16
2017-12-13T01:38:23.150Z,69.74
2017-12-13T01:40:50.995Z,69.07
2017-12-13T01:43:18.561Z,69.51
2017-12-13T01:45:46.130Z,69.88
2017-12-13T01:48:13.658Z,69.82
2017-12-13T01:50:41.210Z,69.12
2017-12-13T01:53:08.774Z,69.30
2017-12-13T01:55:36.338Z,68.40
2017-12-13T01:58:03.971Z,67.49
2017-12-13T02:00:31.561Z,68.93
2017-12-13T02:02:59.107Z,69.82
2017-12-13T02:05:26.701Z,70.50
2017-12-13T02:07:54.263Z,68.70
2017-12-13T02:10:21.793Z,68.98
2017-12-13T02:12:49.380Z,69.62
2017-12-13T02:15:16.947Z,68.18
2017-12-13T02:17:44.502Z,67.97
2017-12-13T02:20:12.038Z,67.31
2017-12-13T02:22:39.607Z,68.69
2017-12-13T02:25:07.198Z,70.38
2017-12-13T02:27:34.742Z,69.09
2017-12-13T02:30:02.316Z,70.31
2017-12-13T02:32:29.928Z,70.32
2017-12-13T02:34:57.453Z,70.48
2017-12-13T02:37:24.978Z,70.89
2017-12-13T02:40:04.448Z,70.09
2017-12-13T02:42:31.985Z,70.23
2017-12-13T02:44:59.527Z,69.47
2017-12-13T02:47:27.078Z,69.30
2017-12-13T02:49:54.832Z,69.55
2017-12-13T02:52:22.590Z,69.62
2017-12-13T02:54:50.456Z,69.20
2017-12-13T02:57:18.023Z,68.09
2017-12-13T02:59:45.579Z,68.48
2017-12-13T03:02:13.173Z,68.35
2017-12-13T03:04:40.720Z,70.63
2017-12-13T03:07:08.268Z,69.60
2017-12-13T03:09:35.876Z,70.05
2017-12-13T03:12:03.647Z,68.55
2017-12-13T03:14:31.224Z,69.10
2017-12-13T03:16:58.811Z,68.15
2017-12-13T03:19:26.366Z,67.63
2017-12-13T03:21:53.911Z,66.54
2017-12-13T03:24:21.480Z,67.06
2017-12-13T03:26:49.028Z,66.89
2017-12-13T03:29:16.583Z,68.09
2017-12-13T03:31:44.168Z,68.34
2017-12-13T03:34:11.712Z,68.46
2017-12-13T03:36:39.562Z,68.13
2017-12-13T03:39:07.151Z,67.34
2017-12-13T03:41:34.706Z,67.16
2017-12-13T03:44:02.277Z,67.10
2017-12-13T03:46:29.860Z,69.29
2017-12-13T03:48:57.408Z,68.67
2017-12-13T03:51:24.957Z,73.88
2017-12-13T03:53:52.527Z,71.76
2017-12-13T03:56:20.055Z,70.76
2017-12-13T03:58:47.809Z,70.79
2017-12-13T04:01:15.401Z,68.75
2017-12-13T04:03:42.950Z,67.79
2017-12-13T04:06:10.526Z,68.38
2017-12-13T04:08:38.094Z,69.89
2017-12-13T04:11:05.661Z,69.73
2017-12-13T04:13:33.199Z,68.66
2017-12-13T04:16:00.746Z,68.54
2017-12-13T04:18:28.284Z,67.36
2017-12-13T04:20:56.056Z,68.51
2017-12-13T04:23:23.637Z,70.19
2017-12-13T04:25:51.226Z,69.77
2017-12-13T04:28:18.974Z,72.67
2017-12-13T04:30:46.706Z,71.78
2017-12-13T04:33:14.454Z,69.88
2017-12-13T04:35:41.991Z,70.27
2017-12-13T04:38:09.565Z,68.99
2017-12-13T04:40:37.121Z,69.06
2017-12-13T04:43:04.669Z,71.14
2017-12-13T04:45:32.249Z,70.26
2017-12-13T04:47:59.833Z,70.32
2017-12-13T04:50:27.373Z,69.58
2017-12-13T04:52:54.940Z,72.08
2017-12-13T04:55:22.492Z,73.22
2017-12-13T04:57:50.047Z,69.91
2017-12-13T05:00:17.637Z,70.09
2017-12-13T05:02:45.174Z,70.42
2017-12-13T05:05:12.713Z,70.29
2017-12-13T05:07:40.280Z,72.50
2017-12-13T05:10:07.846Z,74.59
2017-12-13T05:12:35.382Z,73.75
2017-12-13T05:15:02.942Z,73.93
2017-12-13T05:17:30.498Z,75.60
2017-12-13T05:19:58.027Z,77.88
2017-12-13T05:22:25.934Z,75.34
2017-12-13T05:24:53.775Z,76.01
2017-12-13T05:27:21.293Z,75.33
2017-12-13T05:29:49.454Z,73.78
2017-12-13T05:32:17.006Z,72.75
2017-12-13T05:34:44.697Z,73.72
2017-12-13T05:37:12.227Z,72.15
2017-12-13T05:39:39.810Z,72.10
2017-12-13T05:42:07.387Z,71.10
2017-12-13T05:44:34.939Z,71.67
2017-12-13T05:47:02.591Z,70.94
2017-12-13T05:49:30.187Z,71.43
2017-12-13T05:51:57.735Z,70.45
2017-12-13T05:54:25.321Z,71.32
2017-12-13T05:56:52.908Z,70.19
2017-12-13T05:59:20.500Z,69.99
2017-12-13T06:01:48.194Z,69.96
2017-12-13T06:04:15.733Z,70.10
2017-12-13T06:06:43.285Z,68.67
2017-12-13T06:09:10.937Z,68.41
2017-12-13T06:11:38.492Z,69.12
2017-12-13T06:14:06.026Z,69.34
2017-12-13T06:16:33.587Z,67.90
2017-12-13T06:19:01.172Z,68.20
2017-12-13T06:21:28.750Z,67.12
2017-12-13T06:23:56.463Z,67.97
2017-12-13T06:26:23.999Z,65.94
2017-12-13T06:28:51.736Z,66.62
2017-12-13T06:31:19.313Z,65.20
2017-12-13T06:33:46.867Z,65.13
2017-12-13T06:36:14.405Z,65.05
2017-12-13T06:38:42.000Z,62.31
2017-12-13T06:41:09.542Z,62.40
2017-12-13T06:43:38.748Z,62.69
2017-12-13T06:46:06.447Z,65.18
2017-12-13T06:48:34.067Z,66.28
2017-12-13T06:51:01.616Z,64.29
2017-12-13T06:53:29.163Z,63.06
2017-12-13T06:55:56.718Z,63.21
2017-12-13T06:58:24.285Z,63.89
2017-12-13T07:00:51.879Z,63.42
2017-12-13T07:03:19.443Z,63.52
2017-12-13T07:05:46.976Z,62.08
2017-12-13T07:08:14.552Z,58.99
2017-12-13T07:10:42.100Z,59.29
2017-12-13T07:13:09.652Z,59.07
2017-12-13T07:15:37.243Z,57.28
2017-12-13T07:18:04.778Z,57.84
2017-12-13T07:20:32.354Z,58.23
2017-12-13T07:22:59.913Z,57.62
2017-12-13T07:25:27.446Z,54.44
2017-12-13T07:27:55.082Z,53.47
2017-12-13T07:30:22.802Z,53.56
2017-12-13T07:32:50.392Z,51.40
2017-12-13T07:35:17.926Z,51.00
2017-12-13T07:37:45.501Z,50.47
2017-12-13T07:40:13.040Z,48.07
2017-12-13T07:42:40.663Z,49.37
2017-12-13T07:45:08.236Z,48.53
2017-12-13T07:47:35.778Z,48.07
2017-12-13T07:50:03.535Z,47.04
2017-12-13T07:52:31.749Z,50.44
2017-12-13T07:54:59.342Z,47.37
2017-12-13T07:57:26.922Z,45.67
2017-12-13T07:59:54.532Z,44.53
2017-12-13T08:02:22.204Z,45.06
2017-12-13T08:04:49.759Z,45.29
2017-12-13T08:07:17.579Z,45.48
2017-12-13T08:09:45.114Z,45.45
2017-12-13T08:12:12.680Z,45.11
2017-12-13T08:14:40.220Z,45.44
2017-12-13T08:17:07.842Z,46.90
2017-12-13T08:19:35.416Z,46.76
2017-12-13T08:22:03.003Z,48.03
2017-12-13T08:24:30.559Z,48.13
2017-12-13T08:26:58.356Z,49.88
2017-12-13T08:29:25.910Z,49.39
2017-12-13T08:31:53.453Z,50.07
2017-12-13T08:34:21.014Z,48.12
2017-12-13T08:36:48.586Z,49.26
2017-12-13T08:39:16.175Z,47.39
2017-12-13T08:41:43.778Z,45.55
2017-12-13T08:44:11.555Z,46.82
2017-12-13T08:46:39.132Z,47.12
2017-12-13T08:49:06.757Z,46.40
2017-12-13T08:51:34.317Z,45.21
2017-12-13T08:54:01.930Z,44.33
2017-12-13T08:56:29.507Z,43.57
2017-12-13T08:58:57.060Z,42.40
2017-12-13T09:01:24.690Z,45.46
2017-12-13T09:03:52.488Z,44.82
2017-12-13T09:06:20.061Z,45.20
2017-12-13T09:08:47.666Z,46.26
2017-12-13T09:11:15.202Z,47.50
2017-12-13T09:13:42.766Z,45.89
2017-12-13T09:16:10.322Z,45.72
2017-12-13T09:18:37.879Z,47.69
2017-12-13T09:21:05.468Z,48.46
2017-12-13T09:23:33.078Z,46.97
2017-12-13T09:26:00.637Z,47.42
2017-12-13T09:28:28.210Z,46.68
2017-12-13T09:30:55.767Z,45.92
2017-12-13T09:33:23.332Z,44.67
2017-12-13T09:35:50.944Z,46.34
2017-12-13T09:38:18.590Z,46.02
2017-12-13T09:40:46.601Z,44.41
2017-12-13T09:43:15.012Z,46.81
2017-12-13T09:45:42.876Z,48.73
2017-12-13T09:48:10.428Z,47.18
2017-12-13T09:50:38.000Z,47.37
2017-12-13T09:53:05.572Z,47.35
2017-12-13T09:55:33.130Z,46.43
2017-12-13T09:58:00.679Z,46.05
2017-12-13T10:00:28.517Z,45.91
2017-12-13T10:02:56.137Z,46.26
2017-12-13T10:05:23.684Z,46.37
2017-12-13T10:07:51.229Z,44.99
2017-12-13T10:10:18.839Z,45.24
2017-12-13T10:12:46.414Z,43.34
2017-12-13T10:15:13.995Z,43.78
2017-12-13T10:17:41.611Z,46.61
2017-12-13T10:20:09.200Z,45.80
2017-12-13T10:22:36.758Z,49.26
2017-12-13T10:25:04.343Z,48.09
2017-12-13T10:27:31.922Z,47.77
2017-12-13T10:29:59.519Z,46.24
2017-12-13T10:32:40.999Z,46.95
2017-12-13T10:38:10.649Z,46.73
2017-12-13T10:40:38.191Z,46.58
2017-12-13T10:43:05.760Z,47.43
2017-12-13T10:45:33.343Z,48.23
2017-12-13T10:48:00.880Z,47.45
2017-12-13T10:50:28.423Z,48.06
2017-12-13T10:52:55.995Z,47.85
2017-12-13T10:55:23.543Z,47.86
2017-12-13T10:57:51.070Z,49.07
2017-12-13T11:00:18.764Z,47.81
2017-12-13T11:02:46.322Z,47.67
2017-12-13T11:05:13.878Z,49.56
2017-12-13T11:07:41.452Z,48.04
2017-12-13T11:10:09.021Z,48.43
2017-12-13T11:12:36.685Z,48.15
2017-12-13T11:15:04.247Z,47.78
2017-12-13T11:17:31.851Z,47.43
2017-12-13T11:19:59.511Z,48.77
2017-12-13T11:22:27.095Z,49.17
2017-12-13T11:24:54.626Z,48.99
2017-12-13T11:27:23.152Z,50.82
2017-12-13T11:29:50.725Z,48.99
2017-12-13T11:32:18.319Z,50.64
2017-12-13T11:34:46.125Z,50.53
2017-12-13T11:37:16.579Z,49.32
2017-12-13T11:39:44.150Z,49.00
2017-12-13T11:42:11.714Z,48.04
2017-12-13T11:44:39.241Z,49.61
2017-12-13T11:47:06.921Z,48.51
2017-12-13T11:49:34.491Z,48.12
2017-12-13T11:52:02.076Z,48.41
2017-12-13T11:54:35.166Z,48.97
2017-12-13T11:57:02.720Z,48.71
2017-12-13T11:59:30.234Z,50.28
2017-12-13T12:01:57.794Z,49.52
2017-12-13T12:04:25.389Z,50.96
2017-12-13T12:06:52.952Z,50.68
2017-12-13T12:09:20.567Z,52.42
2017-12-13T12:11:48.104Z,51.59
2017-12-13T12:14:15.706Z,51.71
2017-12-13T12:16:43.341Z,52.03
2017-12-13T12:19:10.882Z,52.30
2017-12-13T12:21:38.405Z,53.12
2017-12-13T12:24:06.009Z,53.09
2017-12-13T12:26:33.654Z,52.98
2017-12-13T12:29:01.299Z,52.72
2017-12-13T12:31:28.933Z,53.57
2017-12-13T12:33:56.476Z,53.61
2017-12-13T12:36:24.015Z,54.85
2017-12-13T12:38:51.593Z,53.35
2017-12-13T12:41:19.106Z,52.91
2017-12-13T12:43:46.673Z,52.78
2017-12-13T12:46:14.965Z,52.87
2017-12-13T12:48:42.506Z,54.73
2017-12-13T12:51:10.053Z,55.16
2017-12-13T12:53:37.652Z,55.06
2017-12-13T12:56:05.241Z,56.69
2017-12-13T12:58:32.817Z,58.05
2017-12-13T13:01:00.385Z,57.40
2017-12-13T13:03:27.948Z,56.85
2017-12-13T13:05:55.531Z,57.21
2017-12-13T13:08:23.285Z,57.83
2017-12-13T13:10:50.890Z,57.79
2017-12-13T13:13:18.436Z,58.51
2017-12-13T13:15:46.099Z,57.90
2017-12-13T13:18:13.652Z,58.11
2017-12-13T13:20:41.245Z,57.95
2017-12-13T13:23:08.822Z,59.30
2017-12-13T13:25:36.501Z,58.20
2017-12-13T13:28:04.109Z,57.93
2017-12-13T13:30:31.685Z,58.58
2017-12-13T13:32:59.231Z,60.41
2017-12-13T13:35:26.820Z,57.85
2017-12-13T13:37:54.384Z,59.32
2017-12-13T13:40:21.948Z,58.73
2017-12-13T13:42:50.278Z,57.77
2017-12-13T13:45:17.828Z,58.22
2017-12-13T13:47:45.693Z,59.27
2017-12-13T13:50:13.227Z,60.17
2017-12-13T13:52:40.800Z,59.93
2017-12-13T13:55:08.357Z,62.15
2017-12-13T13:57:35.878Z,62.15
2017-12-13T14:00:10.484Z,61.39
2017-12-13T14:02:38.050Z,61.36
2017-12-13T14:05:05.597Z,61.12
2017-12-13T14:07:33.181Z,61.34
2017-12-13T14:10:00.721Z,60.95
2017-12-13T14:12:28.285Z,59.60
2017-12-13T14:14:55.844Z,60.10
2017-12-13T14:17:23.399Z,60.92
2017-12-13T14:19:50.943Z,60.39
2017-12-13T14:22:18.522Z,60.18
2017-12-13T14:24:46.077Z,61.08
2017-12-13T14:27:13.649Z,61.19
2017-12-13T14:29:41.213Z,61.32
2017-12-13T14:32:08.784Z,62.49
2017-12-13T14:34:36.427Z,62.28
2017-12-13T14:37:04.255Z,62.05
2017-12-13T14:39:31.835Z,61.49
2017-12-13T14:41:59.380Z,63.01
2017-12-13T14:44:26.992Z,62.40
2017-12-13T14:46:54.671Z,62.45
2017-12-13T14:49:22.235Z,62.83
2017-12-13T14:51:49.806Z,63.33
2017-12-13T14:54:17.484Z,63.72
2017-12-13T14:56:45.033Z,64.11
2017-12-13T14:59:12.640Z,64.28
2017-12-13T15:01:40.266Z,64.65
2017-12-13T15:04:07.790Z,63.42
2017-12-13T15:06:35.880Z,65.38
2017-12-13T15:09:03.570Z,62.64
2017-12-13T15:11:31.180Z,63.42
2017-12-13T15:13:59.049Z,64.20
2017-12-13T15:16:26.615Z,63.84
2017-12-13T15:18:54.193Z,64.36
2017-12-13T15:21:21.770Z,64.16
2017-12-13T15:23:49.446Z,64.24
2017-12-13T15:26:17.188Z,65.06
2017-12-13T15:28:44.882Z,64.09
2017-12-13T15:31:12.709Z,65.61
2017-12-13T15:33:40.401Z,64.29
2017-12-13T15:36:08.072Z,64.02
2017-12-13T15:38:35.644Z,64.69
2017-12-13T15:41:03.342Z,65.22
2017-12-13T15:43:30.896Z,64.85
2017-12-13T15:45:58.484Z,66.62
2017-12-13T15:48:26.047Z,67.32
2017-12-13T15:50:53.639Z,66.65
2017-12-13T15:53:21.225Z,66.76
2017-12-13T15:55:48.804Z,66.52
2017-12-13T15:58:16.334Z,67.34
2017-12-13T16:00:43.890Z,66.06
2017-12-13T16:03:11.458Z,68.75
2017-12-13T16:05:39.018Z,67.99
2017-12-13T16:08:06.624Z,66.46
2017-12-13T16:10:34.181Z,67.14
2017-12-13T16:13:01.742Z,67.43
2017-12-13T16:15:29.324Z,67.56
2017-12-13T16:17:56.897Z,66.61
2017-12-13T16:20:24.449Z,65.77
2017-12-13T16:22:51.998Z,65.50
2017-12-13T16:25:19.538Z,66.18
2017-12-13T16:27:47.258Z,65.52
2017-12-13T16:30:15.887Z,68.30
2017-12-13T16:32:43.507Z,66.53
2017-12-13T16:35:11.150Z,65.57
2017-12-13T16:37:38.790Z,64.84
2017-12-13T16:40:06.364Z,66.35
2017-12-13T16:42:33.981Z,65.44
2017-12-13T16:45:02.355Z,66.15
2017-12-13T16:47:30.066Z,64.77
2017-12-13T16:49:57.680Z,65.73
2017-12-13T16:52:25.229Z,65.37
2017-12-13T16:54:52.775Z,65.19
2017-12-13T16:57:20.306Z,64.81
2017-12-13T16:59:48.054Z,66.34
2017-12-13T17:04:42.546Z,65.88
2017-12-13T17:07:10.189Z,64.80
2017-12-13T17:09:37.768Z,65.32
2017-12-13T17:12:05.317Z,63.81
2017-12-13T17:14:32.854Z,64.57
2017-12-13T17:17:00.558Z,65.29
2017-12-13T17:19:28.142Z,64.82
2017-12-13T17:21:55.732Z,66.53
2017-12-13T17:24:23.502Z,65.33
2017-12-13T17:26:51.035Z,64.75
2017-12-13T17:29:18.616Z,67.60
2017-12-13T17:31:46.195Z,66.23
2017-12-13T17:34:13.727Z,66.04
2017-12-13T17:36:41.345Z,67.30
2017-12-13T17:39:08.960Z,66.74
2017-12-13T17:41:36.537Z,66.39
2017-12-13T17:44:04.121Z,65.35
2017-12-13T17:46:31.961Z,65.27
2017-12-13T17:49:00.194Z,67.27
2017-12-13T17:51:27.750Z,66.05
2017-12-13T17:53:55.328Z,66.38
2017-12-13T17:56:22.863Z,67.38
2017-12-13T17:58:50.437Z,65.70
2017-12-13T18:01:18.018Z,65.90
2017-12-13T18:03:45.610Z,66.14
2017-12-13T18:06:13.225Z,66.54
2017-12-13T18:08:40.839Z,66.44
2017-12-13T18:11:08.426Z,66.74
2017-12-13T18:13:37.468Z,66.39
2017-12-13T18:16:05.382Z,66.38
2017-12-13T18:18:32.962Z,66.95
2017-12-13T18:21:00.532Z,67.53
2017-12-13T18:23:28.140Z,68.10
2017-12-13T18:25:56.085Z,66.28
2017-12-13T18:28:23.654Z,66.53
2017-12-13T18:30:51.257Z,66.20
2017-12-13T18:33:19.125Z,66.25
2017-12-13T18:35:46.751Z,67.54
2017-12-13T18:38:14.349Z,66.82
2017-12-13T18:40:41.966Z,65.95
2017-12-13T18:43:09.563Z,67.24
2017-12-13T18:45:37.326Z,66.14
2017-12-13T18:48:04.908Z,65.86
2017-12-13T18:50:32.601Z,66.05
2017-12-13T18:53:00.352Z,66.57
2017-12-13T18:55:28.221Z,66.82
2017-12-13T18:57:56.587Z,68.23
2017-12-13T19:00:25.376Z,69.80
2017-12-13T19:02:53.212Z,67.25
2017-12-13T19:05:20.909Z,68.93
2017-12-13T19:07:49.354Z,69.16
2017-12-13T19:10:17.130Z,69.05
2017-12-13T19:12:44.704Z,68.81
2017-12-13T19:15:12.378Z,68.58
2017-12-13T19:17:39.947Z,68.65
2017-12-13T19:20:08.099Z,69.24
2017-12-13T19:22:35.796Z,69.32
2017-12-13T19:25:03.398Z,69.42
2017-12-13T19:27:31.928Z,69.27
2017-12-13T19:29:59.756Z,67.77
2017-12-13T19:32:28.309Z,68.82
2017-12-13T19:34:56.013Z,69.68
2017-12-13T19:37:23.665Z,68.63
2017-12-13T19:39:51.297Z,68.37
2017-12-13T19:42:18.944Z,68.30
2017-12-13T19:44:46.539Z,68.86
2017-12-13T19:47:14.245Z,68.82
2017-12-13T19:49:41.849Z,68.98
2017-12-13T19:52:09.503Z,69.18
2017-12-13T19:54:37.198Z,69.91
2017-12-13T19:57:05.655Z,68.82
2017-12-13T19:59:33.829Z,68.96
2017-12-13T20:02:01.472Z,68.60
2017-12-13T20:04:29.781Z,68.42
2017-12-13T20:06:57.375Z,68.56
2017-12-13T20:09:24.978Z,67.34
2017-12-13T20:11:53.376Z,69.21
2017-12-13T20:14:22.133Z,69.39
2017-12-13T20:16:49.848Z,70.92
2017-12-13T20:19:17.664Z,69.56
2017-12-13T20:21:46.457Z,69.36
2017-12-13T20:24:14.089Z,69.21
2017-12-13T20:26:41.677Z,69.37
2017-12-13T20:29:09.292Z,68.90
2017-12-13T20:31:36.900Z,68.36
2017-12-13T20:34:04.584Z,67.97
2017-12-13T20:36:32.382Z,68.23
2017-12-13T20:39:00.115Z,68.34
2017-12-13T20:41:27.678Z,68.29
2017-12-13T20:43:55.222Z,68.43
2017-12-13T20:46:22.951Z,68.60
2017-12-13T20:48:50.538Z,69.61
2017-12-13T20:51:18.342Z,69.12
2017-12-13T20:53:45.948Z,69.49
2017-12-13T20:56:13.748Z,68.51
2017-12-13T20:58:41.316Z,68.55
2017-12-13T21:01:09.119Z,68.64
2017-12-13T21:03:36.873Z,70.59
2017-12-13T21:06:04.465Z,71.04
2017-12-13T21:08:33.095Z,71.70
2017-12-13T21:11:01.751Z,71.11
2017-12-13T21:13:29.376Z,70.71
2017-12-13T21:15:57.051Z,70.50
2017-12-13T21:18:24.682Z,71.95
2017-12-13T21:20:52.226Z,74.11
2017-12-13T21:23:20.043Z,71.83
2017-12-13T21:25:47.674Z,72.46
2017-12-13T21:28:15.261Z,72.44
2017-12-13T21:30:42.957Z,72.03
2017-12-13T21:33:10.550Z,70.54
2017-12-13T21:35:38.121Z,71.91
2017-12-13T21:38:05.693Z,70.63
2017-12-13T21:40:33.460Z,71.08
2017-12-13T21:43:01.011Z,71.23
2017-12-13T21:45:28.596Z,70.38
2017-12-13T21:47:56.135Z,70.57
2017-12-13T21:50:23.672Z,69.09
2017-12-13T21:52:51.294Z,68.71
2017-12-13T21:55:18.822Z,69.13
2017-12-13T21:57:46.635Z,69.21
2017-12-13T22:00:14.395Z,69.10
2017-12-13T22:02:42.024Z,70.27
2017-12-13T22:05:09.643Z,70.83
2017-12-13T22:07:37.457Z,69.01
2017-12-13T22:10:04.985Z,69.39
2017-12-13T22:12:32.522Z,69.81
2017-12-13T22:15:00.865Z,69.80
2017-12-13T22:17:28.601Z,70.74
2017-12-13T22:19:56.371Z,70.45
2017-12-13T22:22:24.260Z,70.66
2017-12-13T22:24:51.831Z,69.30
2017-12-13T22:27:19.377Z,68.31
2017-12-13T22:29:46.959Z,68.26
2017-12-13T22:32:14.542Z,68.81
2017-12-13T22:34:42.380Z,68.69
2017-12-13T22:37:09.936Z,68.45
2017-12-13T22:39:37.495Z,68.56
2017-12-13T22:42:05.119Z,68.51
2017-12-13T22:44:32.881Z,68.77
2017-12-13T22:47:00.459Z,70.09
2017-12-13T22:49:28.008Z,69.02
2017-12-13T22:51:55.586Z,69.01
2017-12-13T22:54:23.154Z,69.13
2017-12-13T22:56:50.733Z,68.99
2017-12-13T22:59:18.256Z,68.81
2017-12-13T23:01:45.874Z,68.33
2017-12-13T23:04:13.461Z,68.44
2017-12-13T23:06:41.011Z,68.71
2017-12-13T23:09:08.620Z,68.81
2017-12-13T23:11:36.150Z,68.59
2017-12-13T23:14:03.763Z,68.54
2017-12-13T23:16:31.309Z,68.54
2017-12-13T23:18:58.866Z,68.73
2017-12-13T23:21:26.478Z,68.07
2017-12-13T23:24:08.838Z,67.39
2017-12-13T23:26:36.466Z,67.54
2017-12-13T23:29:04.373Z,67.49
2017-12-13T23:31:31.956Z,67.10
2017-12-13T23:33:59.496Z,67.05
2017-12-13T23:36:27.075Z,66.85
2017-12-13T23:39:16.260Z,66.68
2017-12-13T23:41:43.913Z,66.88
2017-12-13T23:44:11.491Z,67.24
2017-12-13T23:46:39.044Z,67.50
2017-12-13T23:49:06.576Z,67.25
2017-12-13T23:51:34.168Z,66.81
2017-12-13T23:54:01.755Z,67.13
2017-12-13T23:56:29.532Z,66.72
2017-12-13T23:58:58.701Z,66.87
